Time;durP1;ratioP1;P1;durP2;ratioP2;P2;SDS_P1;SDS_P2;PMS_P1;PMS_P2;Temp;Humidity;BMP_temperature;BMP_pressure;BME280_temperature;BME280_humidity;BME280_pressure;Samples;Min_cycle;Max_cycle;Signal;HPM_P1;HPM_P2
2022/10/20 00:00:30;;;;;;;;;;;;;;;;;;2106823;28;19924;-56
2022/10/20 00:01:31;;;;;;;;;;;;;;;;;;2106611;28;20001;-55
2022/10/20 00:02:31;;;;;;;;;;;;;;;;;;2106555;28;20014;-56
2022/10/20 00:03:32;;;;;;;;;;;;;;;;;;2106655;28;19924;-56
2022/10/20 00:04:33;;;;;;;;;;;;;;;;;;2106662;28;19920;-55
2022/10/20 00:05:34;;;;;;;;;;;;;;;;;;2106779;28;19924;-56
2022/10/20 00:06:35;;;;;;;;;;;;;;;;;;2106609;28;19923;-56
2022/10/20 00:07:36;;;;;;;;;;;;;;;;;;2106652;28;19927;-56
2022/10/20 00:08:37;;;;;;;;;;;;;;;;;;2106620;28;20010;-56
2022/10/20 00:09:38;;;;;;;;;;;;;;;;;;2106600;28;19959;-55
2022/10/20 00:10:38;;;;;;;;;;;;;;;;;;2098009;28;19927;-56
2022/10/20 00:11:39;;;;;;;;;;;;;;;;;;2098186;28;19978;-56
2022/10/20 00:12:40;;;;;;;;;;;;;;;;;;2098241;28;19920;-55
2022/10/20 00:13:41;;;;;;;;;;;;;;;;;;2098238;28;19931;-55
2022/10/20 00:14:41;;;;;;;;;;;;;;;;;;2098373;28;19970;-55
2022/10/20 00:15:42;;;;;;;;;;;;;;;;;;2098218;28;19926;-55
2022/10/20 00:16:43;;;;;;;;;;;;;;;;;;2098188;28;19925;-56
2022/10/20 00:17:45;;;;;;;;;;;;;;;;;;2098182;28;19927;-55
2022/10/20 00:18:46;;;;;;;;;;;;;;;;;;2098337;28;19920;-55
2022/10/20 00:19:46;;;;;;;;;;;;;;;;;;2098271;28;19926;-55
2022/10/20 00:20:47;;;;;;;;;;;;;;;;;;2098391;28;20277;-55
2022/10/20 00:21:48;;;;;;;;;;;;;;;;;;2098098;28;19977;-55
2022/10/20 00:22:49;;;;;;;;;;;;;;;;;;2098201;28;20197;-55
2022/10/20 00:23:50;;;;;;;;;;;;;;;;;;2098300;28;19928;-55
2022/10/20 00:24:50;;;;;;;;;;;;;;;;;;2098189;28;19920;-56
2022/10/20 00:25:51;;;;;;;;;;;;;;;;;;2098140;28;20021;-56
2022/10/20 00:26:52;;;;;;;;;;;;;;;;;;2098072;28;19952;-56
2022/10/20 00:27:53;;;;;;;;;;;;;;;;;;2098193;28;19924;-55
2022/10/20 00:28:54;;;;;;;;;;;;;;;;;;2098267;28;19920;-55
2022/10/20 00:29:55;;;;;;;;;;;;;;;;;;2098264;28;19920;-55
2022/10/20 00:30:55;;;;;;;;;;;;;;;;;;2098198;28;19925;-56
2022/10/20 00:31:56;;;;;;;;;;;;;;;;;;2098038;28;20026;-55
2022/10/20 00:32:57;;;;;;;;;;;;;;;;;;2098154;28;19920;-55
2022/10/20 00:33:58;;;;;;;;;;;;;;;;;;2098115;28;19927;-55
2022/10/20 00:34:58;;;;;;;;;;;;;;;;;;2098268;28;19943;-55
2022/10/20 00:35:59;;;;;;;;;;;;;;;;;;2098059;28;19972;-56
2022/10/20 00:37:00;;;;;;;;;;;;;;;;;;2098002;28;19927;-56
2022/10/20 00:38:01;;;;;;;;;;;;;;;;;;2098279;28;19920;-56
2022/10/20 00:39:02;;;;;;;;;;;;;;;;;;2098099;28;19967;-56
2022/10/20 00:40:03;;;;;;;;;;;;;;;;;;2098035;28;20013;-56
2022/10/20 00:41:03;;;;;;;;;;;;;;;;;;2097688;28;19927;-56
2022/10/20 00:42:04;;;;;;;;;;;;;;;;;;2097523;28;20052;-57
2022/10/20 00:43:05;;;;;;;;;;;;;;;;;;2098051;28;19928;-56
2022/10/20 00:44:06;;;;;;;;;;;;;;;;;;2098082;28;20278;-57
2022/10/20 00:45:06;;;;;;;;;;;;;;;;;;2098059;28;19927;-57
2022/10/20 00:46:07;;;;;;;;;;;;;;;;;;2098145;28;19947;-56
2022/10/20 00:47:08;;;;;;;;;;;;;;;;;;2097989;28;20363;-56
2022/10/20 00:48:09;;;;;;;;;;;;;;;;;;2098041;28;20372;-56
2022/10/20 00:49:10;;;;;;;;;;;;;;;;;;2098008;28;19920;-57
2022/10/20 00:50:11;;;;;;;;;;;;;;;;;;2098058;28;19920;-56
2022/10/20 00:51:11;;;;;;;;;;;;;;;;;;2098030;28;19924;-56
2022/10/20 00:52:12;;;;;;;;;;;;;;;;;;2098098;28;19920;-56
2022/10/20 00:53:13;;;;;;;;;;;;;;;;;;2098135;28;19928;-56
2022/10/20 00:54:14;;;;;;;;;;;;;;;;;;2098006;28;20365;-56
2022/10/20 00:55:15;;;;;;;;;;;;;;;;;;2098013;28;19920;-56
2022/10/20 00:56:15;;;;;;;;;;;;;;;;;;2098034;28;19959;-56
2022/10/20 00:57:16;;;;;;;;;;;;;;;;;;2098040;28;19927;-56
2022/10/20 00:58:17;;;;;;;;;;;;;;;;;;2098004;28;20289;-56
2022/10/20 00:59:18;;;;;;;;;;;;;;;;;;2103276;28;19934;-56
2022/10/20 01:00:19;;;;;;;;;;;;;;;;;;2106288;28;19978;-56
2022/10/20 01:01:19;;;;;;;;;;;;;;;;;;2106327;28;19919;-56
2022/10/20 01:02:20;;;;;;;;;;;;;;;;;;2106285;28;19975;-56
2022/10/20 01:03:21;;;;;;;;;;;;;;;;;;2106274;28;19924;-56
2022/10/20 01:04:22;;;;;;;;;;;;;;;;;;2106456;28;19926;-56
2022/10/20 01:05:23;;;;;;;;;;;;;;;;;;2106336;28;20285;-56
2022/10/20 01:06:24;;;;;;;;;;;;;;;;;;2106086;28;19956;-56
2022/10/20 01:07:24;;;;;;;;;;;;;;;;;;2106237;28;19920;-56
2022/10/20 01:08:25;;;;;;;;;;;;;;;;;;2106231;28;19963;-56
2022/10/20 01:09:26;;;;;;;;;;;;;;;;;;2106381;28;20288;-56
2022/10/20 01:10:27;;;;;;;;;;;;;;;;;;2099528;28;19951;-56
2022/10/20 01:11:27;;;;;;;;;;;;;;;;;;2097861;28;20377;-56
2022/10/20 01:12:28;;;;;;;;;;;;;;;;;;2098051;28;20019;-56
2022/10/20 01:13:29;;;;;;;;;;;;;;;;;;2098078;28;19920;-56
2022/10/20 01:14:30;;;;;;;;;;;;;;;;;;2097950;28;19928;-56
2022/10/20 01:15:31;;;;;;;;;;;;;;;;;;2097919;28;19920;-56
2022/10/20 01:16:32;;;;;;;;;;;;;;;;;;2097792;28;19931;-56
2022/10/20 01:17:32;;;;;;;;;;;;;;;;;;2097967;28;19928;-56
2022/10/20 01:18:34;;;;;;;;;;;;;;;;;;2097903;28;20063;-56
2022/10/20 01:19:34;;;;;;;;;;;;;;;;;;2097879;28;19921;-56
2022/10/20 01:20:35;;;;;;;;;;;;;;;;;;2097838;28;19952;-56
2022/10/20 01:21:36;;;;;;;;;;;;;;;;;;2097952;28;20369;-57
2022/10/20 01:22:37;;;;;;;;;;;;;;;;;;2097872;28;20015;-56
2022/10/20 01:23:37;;;;;;;;;;;;;;;;;;2097833;28;19973;-56
2022/10/20 01:24:38;;;;;;;;;;;;;;;;;;2097967;28;19927;-56
2022/10/20 01:25:39;;;;;;;;;;;;;;;;;;2097834;28;19920;-56
2022/10/20 01:26:40;;;;;;;;;;;;;;;;;;2097917;28;20011;-56
2022/10/20 01:27:41;;;;;;;;;;;;;;;;;;2097863;28;20349;-56
2022/10/20 01:28:41;;;;;;;;;;;;;;;;;;2097886;28;19928;-56
2022/10/20 01:29:42;;;;;;;;;;;;;;;;;;2097887;28;19924;-56
2022/10/20 01:30:43;;;;;;;;;;;;;;;;;;2097943;28;20277;-56
2022/10/20 01:31:44;;;;;;;;;;;;;;;;;;2097849;28;19928;-56
2022/10/20 01:32:45;;;;;;;;;;;;;;;;;;2097805;28;19962;-56
2022/10/20 01:33:45;;;;;;;;;;;;;;;;;;2097805;28;19920;-56
2022/10/20 01:34:46;;;;;;;;;;;;;;;;;;2097780;28;19920;-56
2022/10/20 01:35:50;;;;;;;;;;;;;;;;;;2097933;28;20324;-56
2022/10/20 01:36:51;;;;;;;;;;;;;;;;;;2097648;28;19920;-56
2022/10/20 01:37:52;;;;;;;;;;;;;;;;;;2097764;28;19924;-56
2022/10/20 01:38:53;;;;;;;;;;;;;;;;;;2097763;28;19925;-56
2022/10/20 01:39:54;;;;;;;;;;;;;;;;;;2097884;28;19928;-56
2022/10/20 01:40:55;;;;;;;;;;;;;;;;;;2097797;28;19960;-56
2022/10/20 01:41:55;;;;;;;;;;;;;;;;;;2097700;28;19931;-56
2022/10/20 01:42:56;;;;;;;;;;;;;;;;;;2097876;28;19978;-56
2022/10/20 01:43:57;;;;;;;;;;;;;;;;;;2097923;28;20316;-56
2022/10/20 01:44:58;;;;;;;;;;;;;;;;;;2097939;28;20285;-56
2022/10/20 01:45:59;;;;;;;;;;;;;;;;;;2097722;28;20258;-56
2022/10/20 01:47:00;;;;;;;;;;;;;;;;;;2097786;28;20073;-56
2022/10/20 01:48:00;;;;;;;;;;;;;;;;;;2097752;28;19920;-56
2022/10/20 01:49:01;;;;;;;;;;;;;;;;;;2097723;28;20405;-56
2022/10/20 01:50:02;;;;;;;;;;;;;;;;;;2097780;28;19965;-56
2022/10/20 01:51:03;;;;;;;;;;;;;;;;;;2097965;28;19920;-56
2022/10/20 01:52:04;;;;;;;;;;;;;;;;;;2097619;28;19966;-56
2022/10/20 01:53:04;;;;;;;;;;;;;;;;;;2098490;28;19963;-56
2022/10/20 01:54:05;;;;;;;;;;;;;;;;;;2099170;28;19920;-56
2022/10/20 01:55:06;;;;;;;;;;;;;;;;;;2100411;28;20377;-56
2022/10/20 01:56:07;;;;;;;;;;;;;;;;;;2107613;28;19920;-56
2022/10/20 01:57:08;;;;;;;;;;;;;;;;;;2107407;28;19927;-56
2022/10/20 01:58:08;;;;;;;;;;;;;;;;;;2107529;28;19924;-56
2022/10/20 01:59:09;;;;;;;;;;;;;;;;;;2107477;28;20048;-56
2022/10/20 02:00:10;;;;;;;;;;;;;;;;;;2107480;28;19920;-56
2022/10/20 02:01:11;;;;;;;;;;;;;;;;;;2107420;28;19990;-55
2022/10/20 02:02:12;;;;;;;;;;;;;;;;;;2107365;28;19924;-55
2022/10/20 02:03:13;;;;;;;;;;;;;;;;;;2099344;28;20400;-55
2022/10/20 02:04:13;;;;;;;;;;;;;;;;;;2099214;28;19925;-56
2022/10/20 02:05:14;;;;;;;;;;;;;;;;;;2099218;28;19924;-56
2022/10/20 02:06:15;;;;;;;;;;;;;;;;;;2099024;28;20381;-56
2022/10/20 02:07:16;;;;;;;;;;;;;;;;;;2099096;28;19974;-56
2022/10/20 02:08:16;;;;;;;;;;;;;;;;;;2099044;28;20297;-56
2022/10/20 02:09:17;;;;;;;;;;;;;;;;;;2099060;28;20085;-55
2022/10/20 02:10:18;;;;;;;;;;;;;;;;;;2098822;28;19920;-56
2022/10/20 02:11:19;;;;;;;;;;;;;;;;;;2099059;28;20423;-56
2022/10/20 02:12:20;;;;;;;;;;;;;;;;;;2099172;28;19999;-55
2022/10/20 02:13:21;;;;;;;;;;;;;;;;;;2099169;28;20369;-55
2022/10/20 02:14:21;;;;;;;;;;;;;;;;;;2099067;28;19949;-56
2022/10/20 02:15:22;;;;;;;;;;;;;;;;;;2098987;28;19920;-56
2022/10/20 02:16:23;;;;;;;;;;;;;;;;;;2099124;28;20372;-55
2022/10/20 02:17:24;;;;;;;;;;;;;;;;;;2098923;28;20396;-55
2022/10/20 02:18:24;;;;;;;;;;;;;;;;;;2099105;28;19920;-55
2022/10/20 02:19:25;;;;;;;;;;;;;;;;;;2098967;28;20006;-55
2022/10/20 02:20:26;;;;;;;;;;;;;;;;;;2099005;28;19920;-55
2022/10/20 02:21:27;;;;;;;;;;;;;;;;;;2099066;28;19955;-56
2022/10/20 02:22:28;;;;;;;;;;;;;;;;;;2099135;28;20416;-56
2022/10/20 02:23:29;;;;;;;;;;;;;;;;;;2098945;28;19967;-55
2022/10/20 02:24:32;;;;;;;;;;;;;;;;;;2099086;28;19928;-55
2022/10/20 02:25:33;;;;;;;;;;;;;;;;;;2099062;28;19927;-55
2022/10/20 02:26:34;;;;;;;;;;;;;;;;;;2098831;28;20293;-55
2022/10/20 02:27:35;;;;;;;;;;;;;;;;;;2098995;28;20163;-55
2022/10/20 02:28:36;;;;;;;;;;;;;;;;;;2098783;28;19947;-55
2022/10/20 02:29:37;;;;;;;;;;;;;;;;;;2099009;28;19921;-55
2022/10/20 02:30:37;;;;;;;;;;;;;;;;;;2098950;28;20317;-55
2022/10/20 02:31:38;;;;;;;;;;;;;;;;;;2099001;28;19951;-55
2022/10/20 02:32:39;;;;;;;;;;;;;;;;;;2098986;28;20361;-54
2022/10/20 02:33:40;;;;;;;;;;;;;;;;;;2099048;28;20320;-55
2022/10/20 02:34:41;;;;;;;;;;;;;;;;;;2099001;28;20281;-54
2022/10/20 02:35:43;;;;;;;;;;;;;;;;;;2098840;28;20280;-55
2022/10/20 02:36:44;;;;;;;;;;;;;;;;;;2098947;28;19927;-55
2022/10/20 02:37:45;;;;;;;;;;;;;;;;;;2098884;28;19943;-56
2022/10/20 02:38:45;;;;;;;;;;;;;;;;;;2099024;28;19951;-55
2022/10/20 02:39:46;;;;;;;;;;;;;;;;;;2098748;28;19967;-55
2022/10/20 02:40:47;;;;;;;;;;;;;;;;;;2098870;28;19974;-55
2022/10/20 02:41:48;;;;;;;;;;;;;;;;;;2098714;28;19955;-55
2022/10/20 02:42:49;;;;;;;;;;;;;;;;;;2098950;28;19920;-55
2022/10/20 02:43:50;;;;;;;;;;;;;;;;;;2098931;28;20358;-55
2022/10/20 02:44:50;;;;;;;;;;;;;;;;;;2098984;28;19924;-55
2022/10/20 02:45:51;;;;;;;;;;;;;;;;;;2099064;28;20287;-55
2022/10/20 02:46:52;;;;;;;;;;;;;;;;;;2098711;28;19920;-56
2022/10/20 02:47:53;;;;;;;;;;;;;;;;;;2098740;28;19924;-55
2022/10/20 02:48:53;;;;;;;;;;;;;;;;;;2098828;28;19931;-55
2022/10/20 02:49:54;;;;;;;;;;;;;;;;;;2098975;28;20194;-55
2022/10/20 02:50:55;;;;;;;;;;;;;;;;;;2098817;28;20436;-55
2022/10/20 02:51:56;;;;;;;;;;;;;;;;;;2104855;28;19924;-56
2022/10/20 02:52:57;;;;;;;;;;;;;;;;;;2107178;28;19920;-55
2022/10/20 02:53:58;;;;;;;;;;;;;;;;;;2107287;28;19919;-55
2022/10/20 02:54:58;;;;;;;;;;;;;;;;;;2107213;28;20272;-55
2022/10/20 02:56:00;;;;;;;;;;;;;;;;;;2107205;28;19919;-55
2022/10/20 02:57:00;;;;;;;;;;;;;;;;;;2107088;28;19927;-55
2022/10/20 02:58:01;;;;;;;;;;;;;;;;;;2107048;28;19920;-55
2022/10/20 02:59:02;;;;;;;;;;;;;;;;;;2107010;28;19947;-55
2022/10/20 03:00:03;;;;;;;;;;;;;;;;;;2107120;28;19920;-55
2022/10/20 03:01:03;;;;;;;;;;;;;;;;;;2107229;28;19927;-55
2022/10/20 03:02:04;;;;;;;;;;;;;;;;;;2107023;28;20400;-55
2022/10/20 03:03:05;;;;;;;;;;;;;;;;;;2107200;28;19920;-56
2022/10/20 03:04:06;;;;;;;;;;;;;;;;;;2106832;28;20359;-56
2022/10/20 03:05:07;;;;;;;;;;;;;;;;;;2106564;28;19924;-56
2022/10/20 03:06:08;;;;;;;;;;;;;;;;;;2107377;28;20216;-56
2022/10/20 03:07:08;;;;;;;;;;;;;;;;;;2106932;28;20289;-56
2022/10/20 03:08:09;;;;;;;;;;;;;;;;;;2106951;28;19978;-56
2022/10/20 03:09:10;;;;;;;;;;;;;;;;;;2107029;28;19923;-56
2022/10/20 03:10:11;;;;;;;;;;;;;;;;;;2102455;28;19963;-56
2022/10/20 03:11:12;;;;;;;;;;;;;;;;;;2098715;28;20475;-56
2022/10/20 03:12:12;;;;;;;;;;;;;;;;;;2098581;28;20034;-56
2022/10/20 03:13:14;;;;;;;;;;;;;;;;;;2098678;28;20381;-56
2022/10/20 03:14:15;;;;;;;;;;;;;;;;;;2098733;28;19920;-56
2022/10/20 03:15:16;;;;;;;;;;;;;;;;;;2098723;28;19921;-56
2022/10/20 03:16:17;;;;;;;;;;;;;;;;;;2098518;28;19920;-56
2022/10/20 03:17:17;;;;;;;;;;;;;;;;;;2098560;28;19928;-56
2022/10/20 03:18:18;;;;;;;;;;;;;;;;;;2098607;28;20074;-57
2022/10/20 03:19:19;;;;;;;;;;;;;;;;;;2098717;28;19921;-57
2022/10/20 03:20:20;;;;;;;;;;;;;;;;;;2098546;28;19924;-57
2022/10/20 03:21:21;;;;;;;;;;;;;;;;;;2098768;28;19926;-57
2022/10/20 03:22:22;;;;;;;;;;;;;;;;;;2098518;28;20383;-57
2022/10/20 03:23:22;;;;;;;;;;;;;;;;;;2098562;28;19924;-57
2022/10/20 03:24:23;;;;;;;;;;;;;;;;;;2098511;28;19966;-57
2022/10/20 03:25:24;;;;;;;;;;;;;;;;;;2098518;28;19920;-57
2022/10/20 03:26:25;;;;;;;;;;;;;;;;;;2098583;28;19920;-57
2022/10/20 03:27:25;;;;;;;;;;;;;;;;;;2098387;28;19928;-57
2022/10/20 03:28:26;;;;;;;;;;;;;;;;;;2098396;28;20001;-56
2022/10/20 03:29:27;;;;;;;;;;;;;;;;;;2098553;28;19932;-57
2022/10/20 03:30:28;;;;;;;;;;;;;;;;;;2098694;28;19951;-57
2022/10/20 03:31:29;;;;;;;;;;;;;;;;;;2098440;28;19920;-57
2022/10/20 03:32:30;;;;;;;;;;;;;;;;;;2098698;28;19920;-57
2022/10/20 03:33:30;;;;;;;;;;;;;;;;;;2098607;28;19927;-57
2022/10/20 03:34:31;;;;;;;;;;;;;;;;;;2098517;28;20059;-57
2022/10/20 03:35:32;;;;;;;;;;;;;;;;;;2098482;28;19932;-56
2022/10/20 03:36:33;;;;;;;;;;;;;;;;;;2098550;28;19926;-57
2022/10/20 03:37:34;;;;;;;;;;;;;;;;;;2098729;28;19930;-57
2022/10/20 03:38:34;;;;;;;;;;;;;;;;;;2098425;28;20014;-57
2022/10/20 03:39:35;;;;;;;;;;;;;;;;;;2098461;28;19927;-57
2022/10/20 03:40:36;;;;;;;;;;;;;;;;;;2098453;28;19920;-57
2022/10/20 03:41:37;;;;;;;;;;;;;;;;;;2098550;28;19967;-57
2022/10/20 03:42:38;;;;;;;;;;;;;;;;;;2098435;28;19921;-57
2022/10/20 03:43:39;;;;;;;;;;;;;;;;;;2098449;28;20284;-57
2022/10/20 03:44:39;;;;;;;;;;;;;;;;;;2098558;28;19920;-57
2022/10/20 03:45:40;;;;;;;;;;;;;;;;;;2098584;28;19921;-57
2022/10/20 03:46:41;;;;;;;;;;;;;;;;;;2098423;28;20023;-56
2022/10/20 03:47:42;;;;;;;;;;;;;;;;;;2100575;28;19971;-56
2022/10/20 03:48:43;;;;;;;;;;;;;;;;;;2106794;28;19971;-56
2022/10/20 03:49:44;;;;;;;;;;;;;;;;;;2106921;28;19920;-57
2022/10/20 03:50:44;;;;;;;;;;;;;;;;;;2106805;28;20143;-57
2022/10/20 03:51:45;;;;;;;;;;;;;;;;;;2106757;28;19920;-57
2022/10/20 03:52:46;;;;;;;;;;;;;;;;;;2106866;28;20370;-57
2022/10/20 03:53:47;;;;;;;;;;;;;;;;;;2106861;28;19932;-57
2022/10/20 03:54:48;;;;;;;;;;;;;;;;;;2106389;28;19962;-57
2022/10/20 03:55:48;;;;;;;;;;;;;;;;;;2098436;28;19920;-57
2022/10/20 03:56:49;;;;;;;;;;;;;;;;;;2098406;28;19927;-56
2022/10/20 03:57:50;;;;;;;;;;;;;;;;;;2098488;28;20362;-56
2022/10/20 03:58:51;;;;;;;;;;;;;;;;;;2098284;28;20354;-57
2022/10/20 03:59:52;;;;;;;;;;;;;;;;;;2098561;28;19925;-56
2022/10/20 04:00:52;;;;;;;;;;;;;;;;;;2098336;28;20251;-56
2022/10/20 04:01:53;;;;;;;;;;;;;;;;;;2098422;28;19924;-56
2022/10/20 04:02:54;;;;;;;;;;;;;;;;;;2098303;28;20367;-56
2022/10/20 04:03:55;;;;;;;;;;;;;;;;;;2098332;28;19920;-56
2022/10/20 04:04:56;;;;;;;;;;;;;;;;;;2098394;28;20004;-56
2022/10/20 04:05:56;;;;;;;;;;;;;;;;;;2098491;28;20360;-56
2022/10/20 04:06:57;;;;;;;;;;;;;;;;;;2098261;28;19921;-56
2022/10/20 04:07:58;;;;;;;;;;;;;;;;;;2098413;28;19924;-56
2022/10/20 04:08:59;;;;;;;;;;;;;;;;;;2098596;28;20312;-45
2022/10/20 04:10:01;;;;;;;;;;;;;;;;;;2098071;28;20437;-45
2022/10/20 04:11:02;;;;;;;;;;;;;;;;;;2098419;28;19921;-45
2022/10/20 04:12:02;;;;;;;;;;;;;;;;;;2098188;28;19924;-45
2022/10/20 04:13:03;;;;;;;;;;;;;;;;;;2098241;28;20371;-45
2022/10/20 04:14:04;;;;;;;;;;;;;;;;;;2098218;28;19921;-45
2022/10/20 04:15:05;;;;;;;;;;;;;;;;;;2098264;28;19974;-45
2022/10/20 04:16:05;;;;;;;;;;;;;;;;;;2098158;28;19927;-45
2022/10/20 04:17:06;;;;;;;;;;;;;;;;;;2098134;28;20300;-45
2022/10/20 04:18:07;;;;;;;;;;;;;;;;;;2098432;28;19920;-44
2022/10/20 04:19:08;;;;;;;;;;;;;;;;;;2098173;28;20349;-45
2022/10/20 04:20:09;;;;;;;;;;;;;;;;;;2098210;28;19924;-45
2022/10/20 04:21:10;;;;;;;;;;;;;;;;;;2098211;28;19969;-45
2022/10/20 04:22:10;;;;;;;;;;;;;;;;;;2098109;28;19927;-45
2022/10/20 04:23:11;;;;;;;;;;;;;;;;;;2098233;28;20011;-45
2022/10/20 04:24:12;;;;;;;;;;;;;;;;;;2098331;28;19924;-45
2022/10/20 04:25:13;;;;;;;;;;;;;;;;;;2098307;28;20320;-45
2022/10/20 04:26:14;;;;;;;;;;;;;;;;;;2098196;28;20289;-44
2022/10/20 04:27:15;;;;;;;;;;;;;;;;;;2098180;28;20014;-44
2022/10/20 04:28:15;;;;;;;;;;;;;;;;;;2098208;28;20250;-45
2022/10/20 04:29:16;;;;;;;;;;;;;;;;;;2098356;28;19920;-45
2022/10/20 04:30:17;;;;;;;;;;;;;;;;;;2098186;28;19951;-44
2022/10/20 04:31:18;;;;;;;;;;;;;;;;;;2098289;28;19920;-44
2022/10/20 04:32:19;;;;;;;;;;;;;;;;;;2098049;28;19926;-45
2022/10/20 04:33:19;;;;;;;;;;;;;;;;;;2098195;28;20075;-46
2022/10/20 04:34:20;;;;;;;;;;;;;;;;;;2098144;28;19959;-44
2022/10/20 04:35:21;;;;;;;;;;;;;;;;;;2098283;28;19920;-45
2022/10/20 04:36:22;;;;;;;;;;;;;;;;;;2098210;28;19924;-46
2022/10/20 04:37:23;;;;;;;;;;;;;;;;;;2098063;28;19920;-45
2022/10/20 04:38:23;;;;;;;;;;;;;;;;;;2098117;28;19967;-44
2022/10/20 04:39:24;;;;;;;;;;;;;;;;;;2098088;28;19921;-45
2022/10/20 04:40:25;;;;;;;;;;;;;;;;;;2098108;28;19966;-45
2022/10/20 04:41:26;;;;;;;;;;;;;;;;;;2098164;28;19959;-44
2022/10/20 04:42:27;;;;;;;;;;;;;;;;;;2098031;28;20285;-45
2022/10/20 04:43:27;;;;;;;;;;;;;;;;;;2098038;28;19927;-45
2022/10/20 04:44:28;;;;;;;;;;;;;;;;;;2104750;28;19920;-44
2022/10/20 04:45:29;;;;;;;;;;;;;;;;;;2106531;28;19920;-44
2022/10/20 04:46:30;;;;;;;;;;;;;;;;;;2106336;28;20011;-45
2022/10/20 04:47:31;;;;;;;;;;;;;;;;;;2106545;28;20014;-44
2022/10/20 04:48:32;;;;;;;;;;;;;;;;;;2106475;28;20365;-44
2022/10/20 04:49:32;;;;;;;;;;;;;;;;;;2106582;28;19924;-44
2022/10/20 04:50:33;;;;;;;;;;;;;;;;;;2106418;28;19966;-45
2022/10/20 04:51:34;;;;;;;;;;;;;;;;;;2106119;28;19927;-44
2022/10/20 04:52:35;;;;;;;;;;;;;;;;;;2106210;28;19920;-44
2022/10/20 04:53:36;;;;;;;;;;;;;;;;;;2106428;28;20034;-44
2022/10/20 04:54:36;;;;;;;;;;;;;;;;;;2106369;28;19920;-44
2022/10/20 04:55:37;;;;;;;;;;;;;;;;;;2106387;28;19924;-44
2022/10/20 04:56:38;;;;;;;;;;;;;;;;;;2106438;28;19927;-44
2022/10/20 04:57:39;;;;;;;;;;;;;;;;;;2106406;28;19920;-44
2022/10/20 04:58:40;;;;;;;;;;;;;;;;;;2106433;28;20062;-44
2022/10/20 04:59:41;;;;;;;;;;;;;;;;;;2106371;28;19970;-44
2022/10/20 05:00:42;;;;;;;;;;;;;;;;;;2106470;28;19923;-45
2022/10/20 05:01:43;;;;;;;;;;;;;;;;;;2106224;28;20380;-44
2022/10/20 05:02:43;;;;;;;;;;;;;;;;;;2106361;28;20417;-44
2022/10/20 05:03:44;;;;;;;;;;;;;;;;;;2106394;28;19919;-44
2022/10/20 05:04:45;;;;;;;;;;;;;;;;;;2106423;28;20296;-45
2022/10/20 05:05:46;;;;;;;;;;;;;;;;;;2106322;28;19920;-44
2022/10/20 05:06:47;;;;;;;;;;;;;;;;;;2106284;28;19924;-44
2022/10/20 05:07:47;;;;;;;;;;;;;;;;;;2106395;28;19920;-45
2022/10/20 05:08:48;;;;;;;;;;;;;;;;;;2106348;28;19923;-45
2022/10/20 05:09:49;;;;;;;;;;;;;;;;;;2106371;28;20015;-45
2022/10/20 05:10:50;;;;;;;;;;;;;;;;;;2106164;28;19927;-44
2022/10/20 05:11:52;;;;;;;;;;;;;;;;;;2106201;28;19962;-45
2022/10/20 05:12:53;;;;;;;;;;;;;;;;;;2106330;28;19981;-44
2022/10/20 05:13:54;;;;;;;;;;;;;;;;;;2106225;28;19924;-44
2022/10/20 05:14:55;;;;;;;;;;;;;;;;;;2106311;28;19959;-44
2022/10/20 05:15:55;;;;;;;;;;;;;;;;;;2106412;28;20061;-44
2022/10/20 05:16:56;;;;;;;;;;;;;;;;;;2106123;28;19923;-45
2022/10/20 05:17:57;;;;;;;;;;;;;;;;;;2106323;28;19926;-44
2022/10/20 05:18:58;;;;;;;;;;;;;;;;;;2106262;28;19926;-45
2022/10/20 05:19:59;;;;;;;;;;;;;;;;;;2106378;28;19927;-45
2022/10/20 05:21:00;;;;;;;;;;;;;;;;;;2106551;28;20269;-44
2022/10/20 05:22:09;;;;;;;;;;;;;;;;;;2106132;28;19924;-45
2022/10/20 05:23:10;;;;;;;;;;;;;;;;;;2106220;28;19919;-44
2022/10/20 05:24:11;;;;;;;;;;;;;;;;;;2106232;28;19999;-44
2022/10/20 05:25:14;;;;;;;;;;;;;;;;;;2106338;28;19920;-44
2022/10/20 05:26:36;;;;;;;;;;;;;;;;;;2106000;28;19924;-44
2022/10/20 05:27:36;;;;;;;;;;;;;;;;;;2106422;28;19927;-44
2022/10/20 05:28:37;;;;;;;;;;;;;;;;;;2107601;28;20384;-44
2022/10/20 05:29:38;;;;;;;;;;;;;;;;;;2107717;28;19920;-44
2022/10/20 05:30:39;;;;;;;;;;;;;;;;;;2107643;28;19967;-44
2022/10/20 05:31:40;;;;;;;;;;;;;;;;;;2107571;28;20048;-44
2022/10/20 05:32:41;;;;;;;;;;;;;;;;;;2107719;28;19966;-44
2022/10/20 05:33:41;;;;;;;;;;;;;;;;;;2107665;28;19919;-44
2022/10/20 05:34:43;;;;;;;;;;;;;;;;;;2107640;28;19924;-44
2022/10/20 05:35:43;;;;;;;;;;;;;;;;;;2107621;28;19920;-44
2022/10/20 05:36:44;;;;;;;;;;;;;;;;;;2107735;28;19962;-44
2022/10/20 05:37:45;;;;;;;;;;;;;;;;;;2107480;28;19920;-43
2022/10/20 05:38:46;;;;;;;;;;;;;;;;;;2107595;28;20266;-43
2022/10/20 05:39:47;;;;;;;;;;;;;;;;;;2107561;28;19970;-43
2022/10/20 05:40:48;;;;;;;;;;;;;;;;;;2107528;28;19920;-43
2022/10/20 05:41:49;;;;;;;;;;;;;;;;;;2107474;28;19964;-44
2022/10/20 05:42:50;;;;;;;;;;;;;;;;;;2108040;28;19927;-43
2022/10/20 05:43:51;;;;;;;;;;;;;;;;;;2107487;28;20292;-43
2022/10/20 05:44:52;;;;;;;;;;;;;;;;;;2107655;28;19931;-43
2022/10/20 05:45:52;;;;;;;;;;;;;;;;;;2107449;28;19977;-43
2022/10/20 05:46:53;;;;;;;;;;;;;;;;;;2107374;28;20014;-43
2022/10/20 05:47:54;;;;;;;;;;;;;;;;;;2101937;28;19969;-43
2022/10/20 05:48:55;;;;;;;;;;;;;;;;;;2099127;28;19920;-43
2022/10/20 05:49:56;;;;;;;;;;;;;;;;;;2099154;28;19920;-43
2022/10/20 05:50:57;;;;;;;;;;;;;;;;;;2099269;28;19970;-43
2022/10/20 05:51:57;;;;;;;;;;;;;;;;;;2099316;28;19967;-43
2022/10/20 05:52:58;;;;;;;;;;;;;;;;;;2099100;28;20254;-43
2022/10/20 05:53:59;;;;;;;;;;;;;;;;;;2099308;28;19921;-43
2022/10/20 05:55:00;;;;;;;;;;;;;;;;;;2099085;28;19924;-43
2022/10/20 05:56:01;;;;;;;;;;;;;;;;;;2099126;28;19920;-43
2022/10/20 05:57:01;;;;;;;;;;;;;;;;;;2099045;28;19924;-43
2022/10/20 05:58:02;;;;;;;;;;;;;;;;;;2099081;28;19924;-44
2022/10/20 05:59:03;;;;;;;;;;;;;;;;;;2099200;28;19926;-44
2022/10/20 06:00:04;;;;;;;;;;;;;;;;;;2099223;28;19920;-43
2022/10/20 06:01:05;;;;;;;;;;;;;;;;;;2099092;28;19966;-43
2022/10/20 06:02:06;;;;;;;;;;;;;;;;;;2098961;28;19924;-43
2022/10/20 06:03:06;;;;;;;;;;;;;;;;;;2099074;28;19924;-43
2022/10/20 06:04:08;;;;;;;;;;;;;;;;;;2099073;28;19921;-44
2022/10/20 06:05:08;;;;;;;;;;;;;;;;;;2099229;28;19927;-44
2022/10/20 06:06:09;;;;;;;;;;;;;;;;;;2099089;28;19977;-43
2022/10/20 06:07:10;;;;;;;;;;;;;;;;;;2098982;28;19927;-43
2022/10/20 06:08:11;;;;;;;;;;;;;;;;;;2099113;28;19920;-43
2022/10/20 06:09:12;;;;;;;;;;;;;;;;;;2098975;28;19950;-44
2022/10/20 06:10:12;;;;;;;;;;;;;;;;;;2099010;28;19925;-43
2022/10/20 06:11:13;;;;;;;;;;;;;;;;;;2098975;28;19920;-43
2022/10/20 06:12:14;;;;;;;;;;;;;;;;;;2099103;28;19920;-43
2022/10/20 06:13:15;;;;;;;;;;;;;;;;;;2099188;28;19973;-43
2022/10/20 06:14:16;;;;;;;;;;;;;;;;;;2099169;28;19928;-43
2022/10/20 06:15:17;;;;;;;;;;;;;;;;;;2099101;28;19921;-43
2022/10/20 06:16:17;;;;;;;;;;;;;;;;;;2098986;28;20267;-43
2022/10/20 06:17:18;;;;;;;;;;;;;;;;;;2099168;28;19920;-43
2022/10/20 06:18:19;;;;;;;;;;;;;;;;;;2098938;28;19920;-43
2022/10/20 06:19:20;;;;;;;;;;;;;;;;;;2099078;28;19920;-43
2022/10/20 06:20:21;;;;;;;;;;;;;;;;;;2099027;28;20287;-43
2022/10/20 06:21:22;;;;;;;;;;;;;;;;;;2099067;28;19973;-43
2022/10/20 06:22:22;;;;;;;;;;;;;;;;;;2098826;28;19920;-43
2022/10/20 06:23:23;;;;;;;;;;;;;;;;;;2099141;28;19920;-43
2022/10/20 06:24:24;;;;;;;;;;;;;;;;;;2098963;28;20053;-43
2022/10/20 06:25:25;;;;;;;;;;;;;;;;;;2098922;28;19921;-44
2022/10/20 06:26:28;;;;;;;;;;;;;;;;;;2099079;28;19960;-44
2022/10/20 06:27:29;;;;;;;;;;;;;;;;;;2098901;28;19921;-43
2022/10/20 06:28:30;;;;;;;;;;;;;;;;;;2098820;28;19920;-44
2022/10/20 06:29:31;;;;;;;;;;;;;;;;;;2098914;28;19949;-43
2022/10/20 06:30:32;;;;;;;;;;;;;;;;;;2098975;28;19927;-44
2022/10/20 06:31:32;;;;;;;;;;;;;;;;;;2098775;28;19971;-43
2022/10/20 06:32:33;;;;;;;;;;;;;;;;;;2099375;28;19970;-56
2022/10/20 06:33:34;;;;;;;;;;;;;;;;;;2098886;28;20411;-56
2022/10/20 06:34:35;;;;;;;;;;;;;;;;;;2099240;28;20007;-44
2022/10/20 06:35:36;;;;;;;;;;;;;;;;;;2098998;28;19921;-44
2022/10/20 06:36:37;;;;;;;;;;;;;;;;;;2102208;28;19968;-44
2022/10/20 06:37:38;;;;;;;;;;;;;;;;;;2107303;28;20109;-44
2022/10/20 06:38:39;;;;;;;;;;;;;;;;;;2107137;28;19920;-44
2022/10/20 06:39:39;;;;;;;;;;;;;;;;;;2106156;28;19989;-43
2022/10/20 06:40:40;;;;;;;;;;;;;;;;;;2107261;28;20384;-43
2022/10/20 06:41:41;;;;;;;;;;;;;;;;;;2107276;28;19920;-44
2022/10/20 06:42:42;;;;;;;;;;;;;;;;;;2107256;28;20015;-43
2022/10/20 06:43:43;;;;;;;;;;;;;;;;;;2105251;28;19927;-44
2022/10/20 06:44:44;;;;;;;;;;;;;;;;;;2098822;28;19921;-44
2022/10/20 06:45:44;;;;;;;;;;;;;;;;;;2098854;28;19920;-44
2022/10/20 06:46:45;;;;;;;;;;;;;;;;;;2098682;28;20003;-44
2022/10/20 06:47:46;;;;;;;;;;;;;;;;;;2098708;28;20395;-43
2022/10/20 06:48:47;;;;;;;;;;;;;;;;;;2098820;28;20408;-44
2022/10/20 06:49:48;;;;;;;;;;;;;;;;;;2098758;28;19920;-44
2022/10/20 06:50:49;;;;;;;;;;;;;;;;;;2099043;28;20014;-44
2022/10/20 06:51:50;;;;;;;;;;;;;;;;;;2098743;28;19921;-44
2022/10/20 06:52:50;;;;;;;;;;;;;;;;;;2098994;28;19920;-44
2022/10/20 06:53:51;;;;;;;;;;;;;;;;;;2098761;28;20281;-44
2022/10/20 06:54:52;;;;;;;;;;;;;;;;;;2098796;28;19931;-43
2022/10/20 06:55:53;;;;;;;;;;;;;;;;;;2098689;28;20332;-44